West Yellowstone, MT

4:19 PM MDT on May 29, 2017 (GMT -0600)
West Yellowstone | | Change Station
Active Advisory: Special Statement

Elev 6650 ft 44.69 °N, 111.12 °W | Updated 44 minutes ago

Scattered Clouds
Scattered Clouds
64 °F
Feels Like 64 °F
N
4
Wind Variable Wind from ENE

Today
High -- | Low -- °F
--% Chance of Precip.
Yesterday
High -- | Low -- °F
Precip. -- in
Pressure 30.25 in
Visibility 10.0 miles
Clouds Scattered Clouds 9500 ft
Dew Point 25 °F
Humidity 22%
Rainfall 0.00 in
Snow Depth Not available.
5:43 AM 9:00 PM
Waxing Crescent, 23% visible
METAR KWYS 292135Z AUTO 07003KT 10SM SCT095 18/M04 A3025 RMK AO2
Pressure 30.25 in
Visibility 10.0 miles
Clouds Scattered Clouds 9500 ft
Dew Point 25 °F
Humidity 22%
Rainfall 0.00 in
Snow Depth Not available.
5:43 AM 9:00 PM
Waxing Crescent, 23% visible
METAR KWYS 292135Z AUTO 07003KT 10SM SCT095 18/M04 A3025 RMK AO2

Get Your Daily Forecast Email!

Thanks for signing up!

Be on the lookout for a verification email in your inbox.

You'll start receiving severe weather alerts in your inbox..

×

10-Day Weather Forecast

Almanac

Astronomy

May. 29, 2017 Rise Set
Actual Time
Civil Twilight
Nautical Twilight
Astronomical Twilight
Moon
Length of Visible Light
Length of Day
Tomorrow will be .
, % of the Moon is Illuminated

Today's Extremes

State Highs State Lows

Community

WunderPhotos

Category 6

Welcome to Category 6. This is the collective home for Weather Underground's featured writeups by Dr. Jeff Masters (right), Bob Henson (left), Chris Burt, and other regular contributors.

Nearby

Air Quality

  Air Quality AQ Index Pollutant
Not available.

Snow Depth

Station Depth Elevation

Earthquake Activity

City Distance Mag. Time & Date
Minimum magnitude displayed is 2.5.

Coastal Water Temperatures

Place Temperature

Stations

Nearby Weather Stations

Station Location Temp. Windchill Dew Point Humidity Wind Precip. Elev Updated Type
                   

Watches & Warnings

Special Statement
Issued: 1:43 PM MDT May. 29, 2017 – National Weather Service

... Isolated to widely scattered mountain thunderstorms expected
this afternoon...

Weak instability is starting to develop a few isolated to widely
mountain thunderstorms this afternoon across the Treasure state.
Thunderstorms will generally remain confined to the
mountains... although cannot rule out an isolated thunderstorm
across the lower elevations close to these areas.
Lightning... gusty winds... and small hail will be the main threats.
Those outdoors should seek shelter if a storm approaches. Remember
when thunder roars... go indoors.